createdAt,value
2022-11-17T00:02:02.006Z,3.50
2022-11-17T00:05:05.857Z,9.77
2022-11-17T00:08:09.655Z,7.43
2022-11-17T00:11:13.264Z,5.68
2022-11-17T00:14:35.281Z,6.93
2022-11-17T00:17:38.309Z,6.65
2022-11-17T00:21:00.828Z,8.70
2022-11-17T00:24:04.777Z,28.73
2022-11-17T00:27:09.166Z,22.17
2022-11-17T00:30:33.165Z,21.10
2022-11-17T00:33:55.453Z,18.57
2022-11-17T00:36:59.594Z,20.58
2022-11-17T00:40:03.868Z,22.35
2022-11-17T00:43:07.892Z,20.65
2022-11-17T00:46:11.815Z,29.20
2022-11-17T00:49:15.939Z,16.75
2022-11-17T00:52:20.298Z,21.55
2022-11-17T00:55:26.400Z,23.48
2022-11-17T00:58:30.366Z,35.08
2022-11-17T01:01:34.468Z,36.97
2022-11-17T01:04:38.163Z,34.83
2022-11-17T01:07:41.871Z,32.00
2022-11-17T01:10:45.883Z,32.42
2022-11-17T01:13:49.488Z,36.05
2022-11-17T01:16:54.302Z,24.13
2022-11-17T01:19:58.103Z,26.85
2022-11-17T01:23:02.215Z,28.85
2022-11-17T01:26:11.083Z,19.70
2022-11-17T01:29:19.694Z,23.30
2022-11-17T01:32:23.531Z,23.20
2022-11-17T01:35:27.628Z,24.33
2022-11-17T01:38:32.062Z,37.67
2022-11-17T01:41:36.116Z,21.73
2022-11-17T01:44:45.282Z,35.08
2022-11-17T01:47:55.734Z,27.13
2022-11-17T01:50:59.589Z,26.85
2022-11-17T01:54:04.287Z,20.23
2022-11-17T01:57:15.234Z,15.60
2022-11-17T02:00:19.590Z,18.80
2022-11-17T02:03:25.122Z,14.50
2022-11-17T02:06:36.442Z,15.88
2022-11-17T02:09:41.409Z,10.15
2022-11-17T02:12:46.775Z,8.95
2022-11-17T02:15:49.856Z,6.65
2022-11-17T02:18:53.241Z,5.70
2022-11-17T02:22:02.340Z,6.45
2022-11-17T02:25:26.790Z,6.50
2022-11-17T02:28:37.856Z,8.13
2022-11-17T02:31:59.349Z,7.60
2022-11-17T02:35:08.659Z,7.43
2022-11-17T02:38:44.463Z,9.00
2022-11-17T02:41:56.143Z,11.20
2022-11-17T02:45:04.502Z,11.10
2022-11-17T02:48:13.945Z,15.18
2022-11-17T02:51:21.499Z,15.00
2022-11-17T02:54:28.687Z,12.60
2022-11-17T02:57:38.557Z,16.45
2022-11-17T03:00:56.346Z,16.58
2022-11-17T03:04:06.170Z,15.73
2022-11-17T03:07:34.206Z,13.13
2022-11-17T03:10:59.607Z,5.75
2022-11-17T03:14:20.275Z,4.55
2022-11-17T03:18:02.516Z,4.90
2022-11-17T03:21:18.215Z,4.47
2022-11-17T03:24:28.722Z,3.53
2022-11-17T03:27:45.974Z,6.93
2022-11-17T03:30:52.002Z,4.10
2022-11-17T03:33:56.680Z,5.70
2022-11-17T03:37:04.952Z,5.60
2022-11-17T03:40:11.381Z,5.47
2022-11-17T03:43:19.732Z,4.15
2022-11-17T03:46:25.064Z,4.85
2022-11-17T03:49:37.761Z,5.07
2022-11-17T03:52:43.187Z,8.13
2022-11-17T03:56:03.913Z,8.00
2022-11-17T03:59:18.410Z,4.90
2022-11-17T04:02:23.498Z,5.85
2022-11-17T04:05:26.582Z,5.55
2022-11-17T04:08:31.700Z,4.78
2022-11-17T04:11:53.212Z,3.93
2022-11-17T04:15:15.496Z,4.93
2022-11-17T04:18:20.413Z,4.95
2022-11-17T04:21:24.389Z,4.22
2022-11-17T04:24:28.041Z,3.35
2022-11-17T04:27:49.642Z,3.90
2022-11-17T04:30:52.581Z,3.78
2022-11-17T04:34:01.024Z,3.08
2022-11-17T04:37:08.105Z,4.10
2022-11-17T04:40:12.471Z,4.28
2022-11-17T04:43:16.086Z,4.10
2022-11-17T04:46:21.707Z,3.17
2022-11-17T04:49:26.924Z,3.30
2022-11-17T04:52:30.556Z,4.43
2022-11-17T04:55:34.225Z,4.70
2022-11-17T04:58:37.519Z,3.57
2022-11-17T05:01:41.982Z,2.60
2022-11-17T05:04:57.596Z,4.95
2022-11-17T05:08:01.741Z,5.03
2022-11-17T05:11:25.389Z,6.15
2022-11-17T05:14:30.557Z,4.30
2022-11-17T05:17:34.157Z,3.55
2022-11-17T05:20:37.783Z,3.53
2022-11-17T05:23:56.240Z,3.60
2022-11-17T05:26:59.144Z,4.47
2022-11-17T05:30:02.944Z,6.03
2022-11-17T05:33:06.518Z,5.18
2022-11-17T05:36:10.416Z,4.93
2022-11-17T05:39:14.854Z,3.47
2022-11-17T05:42:17.850Z,3.50
2022-11-17T05:45:21.131Z,5.33
2022-11-17T05:48:24.608Z,3.42
2022-11-17T05:51:29.265Z,3.03
2022-11-17T05:54:33.320Z,1.70
2022-11-17T05:57:36.388Z,2.20
2022-11-17T06:00:40.648Z,2.17
2022-11-17T06:03:53.276Z,1.95
2022-11-17T06:06:59.854Z,3.25
2022-11-17T06:10:02.987Z,3.78
2022-11-17T06:13:05.830Z,3.05
2022-11-17T06:16:13.096Z,2.83
2022-11-17T06:19:25.460Z,2.10
2022-11-17T06:22:28.921Z,3.03
2022-11-17T06:25:35.016Z,3.60
2022-11-17T06:28:41.636Z,2.60
2022-11-17T06:31:46.906Z,2.23
2022-11-17T06:34:55.704Z,2.10
2022-11-17T06:37:59.034Z,1.80
2022-11-17T06:41:07.516Z,1.75
2022-11-17T06:44:14.604Z,1.65
2022-11-17T06:47:17.814Z,2.53
2022-11-17T06:50:21.591Z,2.08
2022-11-17T06:53:27.407Z,2.35
2022-11-17T06:56:31.176Z,2.45
2022-11-17T06:59:34.548Z,2.40
2022-11-17T07:02:38.269Z,3.10
2022-11-17T07:05:41.523Z,2.47
2022-11-17T07:08:45.960Z,3.15
2022-11-17T07:11:49.411Z,2.58
2022-11-17T07:14:52.370Z,2.50
2022-11-17T07:17:55.586Z,2.87
2022-11-17T07:21:03.738Z,2.88
2022-11-17T07:24:07.761Z,3.80
2022-11-17T07:27:11.723Z,4.43
2022-11-17T07:30:15.653Z,5.60
2022-11-17T07:33:19.015Z,3.60
2022-11-17T07:36:22.201Z,3.22
2022-11-17T07:39:25.799Z,3.00
2022-11-17T07:42:28.730Z,4.95
2022-11-17T07:45:33.466Z,4.82
2022-11-17T07:48:37.410Z,3.80
2022-11-17T07:51:40.985Z,3.05
2022-11-17T07:54:44.605Z,3.40
2022-11-17T07:57:48.722Z,2.97
2022-11-17T08:00:52.359Z,2.47
2022-11-17T08:03:57.074Z,1.93
2022-11-17T08:07:00.741Z,2.42
2022-11-17T08:10:05.317Z,3.30
2022-11-17T08:13:09.250Z,2.75
2022-11-17T08:16:13.624Z,3.85
2022-11-17T08:19:17.316Z,5.13
2022-11-17T08:22:20.959Z,4.80
2022-11-17T08:25:26.801Z,5.07
2022-11-17T08:28:31.030Z,4.60
2022-11-17T08:31:34.812Z,4.90
2022-11-17T08:34:38.041Z,5.50
2022-11-17T08:37:42.273Z,5.68
2022-11-17T08:40:47.033Z,5.80
2022-11-17T08:43:52.197Z,5.72
2022-11-17T08:46:55.774Z,5.55
2022-11-17T08:49:59.043Z,5.97
2022-11-17T08:53:02.674Z,7.50
2022-11-17T08:56:11.159Z,9.07
2022-11-17T08:59:15.011Z,8.40
2022-11-17T09:02:18.759Z,8.10
2022-11-17T09:05:22.821Z,7.30
2022-11-17T09:11:50.352Z,8.38
2022-11-17T09:14:53.991Z,8.27
2022-11-17T09:17:57.982Z,7.88
2022-11-17T09:21:07.059Z,8.67
2022-11-17T09:24:10.387Z,10.40
2022-11-17T09:27:14.390Z,28.52
2022-11-17T09:30:22.961Z,33.63
2022-11-17T09:33:25.987Z,21.55
2022-11-17T09:36:29.285Z,20.87
2022-11-17T09:39:32.706Z,24.98
2022-11-17T09:42:42.357Z,43.55
2022-11-17T09:45:48.850Z,38.03
2022-11-17T09:49:03.999Z,31.83
2022-11-17T09:52:30.847Z,34.33
2022-11-17T09:55:43.559Z,32.92
2022-11-17T09:58:50.472Z,42.63
2022-11-17T10:01:56.067Z,47.55
2022-11-17T10:05:00.842Z,28.85
2022-11-17T10:08:10.081Z,23.67
2022-11-17T10:11:32.187Z,23.27
2022-11-17T10:14:38.956Z,22.42
2022-11-17T10:17:43.305Z,22.33
2022-11-17T10:20:47.170Z,26.23
2022-11-17T10:24:00.802Z,19.57
2022-11-17T10:27:20.657Z,21.40
2022-11-17T10:30:25.591Z,18.58
2022-11-17T10:33:37.423Z,19.00
2022-11-17T10:36:49.368Z,17.42
2022-11-17T10:40:14.919Z,20.43
2022-11-17T10:43:29.139Z,21.13
2022-11-17T10:46:43.117Z,18.80
2022-11-17T10:50:15.462Z,18.00
2022-11-17T10:53:46.706Z,15.57
2022-11-17T10:56:53.225Z,21.63
2022-11-17T11:00:00.671Z,18.40
2022-11-17T11:03:18.097Z,16.50
2022-11-17T11:06:21.784Z,17.10
2022-11-17T11:09:24.784Z,17.40
2022-11-17T11:12:51.869Z,18.23
2022-11-17T11:15:55.838Z,25.33
2022-11-17T11:18:59.576Z,26.90
2022-11-17T11:22:30.262Z,25.77
2022-11-17T11:26:15.060Z,16.52
2022-11-17T11:29:25.491Z,13.67
2022-11-17T11:33:06.450Z,15.98
2022-11-17T11:36:42.525Z,13.98
2022-11-17T11:40:16.250Z,14.02
2022-11-17T11:43:30.066Z,14.37
2022-11-17T11:47:00.527Z,16.98
2022-11-17T11:50:31.324Z,17.05
2022-11-17T11:54:01.909Z,17.35
2022-11-17T11:57:06.898Z,27.58
2022-11-17T12:00:18.323Z,27.03
2022-11-17T12:03:37.041Z,27.05
2022-11-17T12:07:08.552Z,27.42
2022-11-17T12:10:49.383Z,23.25
2022-11-17T12:13:54.857Z,38.85
2022-11-17T12:17:15.707Z,25.83
2022-11-17T12:20:36.233Z,28.35
2022-11-17T12:24:08.830Z,25.15
2022-11-17T12:27:34.377Z,20.45
2022-11-17T12:30:46.256Z,18.30
2022-11-17T12:33:55.147Z,23.67
2022-11-17T12:37:17.066Z,29.85
2022-11-17T12:40:51.338Z,27.67
2022-11-17T12:44:47.174Z,35.63
2022-11-17T12:48:11.258Z,48.03
2022-11-17T12:51:33.524Z,38.25
2022-11-17T12:55:00.473Z,32.40
2022-11-17T12:58:27.842Z,43.05
2022-11-17T13:02:02.019Z,41.25
2022-11-17T13:05:16.940Z,49.00
2022-11-17T13:08:24.321Z,30.03
2022-11-17T13:11:28.613Z,40.03
2022-11-17T13:14:33.080Z,35.03
2022-11-17T13:17:44.422Z,34.75
2022-11-17T13:20:49.586Z,35.27
2022-11-17T13:23:54.648Z,42.60
2022-11-17T13:27:03.078Z,36.08
2022-11-17T13:30:23.420Z,33.75
2022-11-17T13:33:27.392Z,55.47
2022-11-17T13:36:30.924Z,37.92
2022-11-17T13:39:34.772Z,27.83
2022-11-17T13:42:38.135Z,26.17
2022-11-17T13:45:44.288Z,17.83
2022-11-17T13:48:49.559Z,22.55
2022-11-17T13:51:53.643Z,17.70
2022-11-17T13:54:57.624Z,32.58
2022-11-17T13:58:06.581Z,37.77
2022-11-17T14:01:14.264Z,29.05
2022-11-17T14:04:22.916Z,16.67
2022-11-17T14:07:38.420Z,34.15
2022-11-17T14:10:42.147Z,25.58
2022-11-17T14:13:59.521Z,36.78
2022-11-17T14:17:20.307Z,37.55
2022-11-17T14:20:35.931Z,36.67
2022-11-17T14:23:38.927Z,41.80
2022-11-17T14:26:45.601Z,44.40
2022-11-17T14:29:49.510Z,38.35
2022-11-17T14:32:53.379Z,57.33
2022-11-17T14:35:59.480Z,28.60
2022-11-17T14:39:03.553Z,36.60
2022-11-17T14:42:07.575Z,38.08
2022-11-17T14:45:16.290Z,38.38
2022-11-17T14:48:21.156Z,44.40
2022-11-17T14:51:24.397Z,27.10
2022-11-17T14:54:29.922Z,30.95
2022-11-17T14:57:32.754Z,31.95
2022-11-17T15:00:36.642Z,25.00
2022-11-17T15:03:40.361Z,27.58
2022-11-17T15:06:44.078Z,24.17
2022-11-17T15:09:47.561Z,20.52
2022-11-17T15:12:50.912Z,26.67
2022-11-17T15:16:02.270Z,25.50
2022-11-17T15:19:05.606Z,25.23
2022-11-17T15:22:09.313Z,23.42
2022-11-17T15:25:12.932Z,22.98
2022-11-17T15:28:22.373Z,21.50
2022-11-17T15:31:27.579Z,20.05
2022-11-17T15:34:31.487Z,18.52
2022-11-17T15:37:35.004Z,19.63
2022-11-17T15:40:38.610Z,21.90
2022-11-17T15:43:43.632Z,24.80
2022-11-17T15:46:47.898Z,22.00
2022-11-17T15:49:58.938Z,24.15
2022-11-17T15:53:04.553Z,22.60
2022-11-17T15:56:23.404Z,26.45
2022-11-17T15:59:26.428Z,24.42
2022-11-17T16:02:30.514Z,17.40
2022-11-17T16:05:34.101Z,12.63
2022-11-17T16:08:39.029Z,14.85
2022-11-17T16:11:42.856Z,58.38
2022-11-17T16:14:46.144Z,126.07
2022-11-17T16:17:49.071Z,126.28
2022-11-17T16:20:53.030Z,132.50
2022-11-17T16:23:58.284Z,156.55
2022-11-17T16:27:01.484Z,95.23
2022-11-17T16:30:05.770Z,98.20
2022-11-17T16:33:13.753Z,90.75
2022-11-17T16:36:21.712Z,69.40
2022-11-17T16:39:24.945Z,53.60
2022-11-17T16:42:28.340Z,47.03
2022-11-17T16:45:32.719Z,37.05
2022-11-17T16:48:36.314Z,33.45
2022-11-17T16:51:39.810Z,34.03
2022-11-17T16:54:43.399Z,31.88
2022-11-17T16:57:47.450Z,39.78
2022-11-17T17:00:50.296Z,49.08
2022-11-17T17:04:02.184Z,37.83
2022-11-17T17:07:05.582Z,38.90
2022-11-17T17:10:09.944Z,32.50
2022-11-17T17:13:13.492Z,43.13
2022-11-17T17:16:19.477Z,54.23
2022-11-17T17:19:23.445Z,59.92
2022-11-17T17:22:27.541Z,58.50
2022-11-17T17:25:31.820Z,62.78
2022-11-17T17:28:37.490Z,66.80
2022-11-17T17:31:42.825Z,69.97
2022-11-17T17:34:46.731Z,67.53
2022-11-17T17:37:50.353Z,71.03
2022-11-17T17:40:54.380Z,58.17
2022-11-17T17:44:03.664Z,65.82
2022-11-17T17:47:07.654Z,52.10
2022-11-17T17:50:11.298Z,58.95
2022-11-17T17:53:14.543Z,53.70
2022-11-17T17:56:20.032Z,51.75
2022-11-17T17:59:24.658Z,55.55
2022-11-17T18:02:27.635Z,34.33
2022-11-17T18:05:32.063Z,16.83
2022-11-17T18:08:36.813Z,17.33
2022-11-17T18:11:46.560Z,16.38
2022-11-17T18:14:50.315Z,15.07
2022-11-17T18:17:54.131Z,18.58
2022-11-17T18:21:05.212Z,20.30
2022-11-17T18:24:09.541Z,20.67
2022-11-17T18:27:13.134Z,21.30
2022-11-17T18:30:17.744Z,27.35
2022-11-17T18:33:21.476Z,20.35
2022-11-17T18:36:25.102Z,23.58
2022-11-17T18:39:29.332Z,21.13
2022-11-17T18:42:33.333Z,27.60
2022-11-17T18:45:39.260Z,22.63
2022-11-17T18:48:45.447Z,22.05
2022-11-17T18:51:49.024Z,21.80
2022-11-17T18:54:51.924Z,20.58
2022-11-17T18:57:55.878Z,20.20
2022-11-17T19:01:07.423Z,13.68
2022-11-17T19:04:14.436Z,13.57
2022-11-17T19:07:17.990Z,11.68
2022-11-17T19:10:22.224Z,12.17
2022-11-17T19:13:26.561Z,12.55
2022-11-17T19:16:32.635Z,11.90
2022-11-17T19:19:36.202Z,40.53
2022-11-17T19:22:39.471Z,56.20
2022-11-17T19:25:43.532Z,104.00
2022-11-17T19:28:46.939Z,102.07
2022-11-17T19:31:51.684Z,107.03
2022-11-17T19:35:01.329Z,106.13
2022-11-17T19:38:09.646Z,107.03
2022-11-17T19:41:15.491Z,96.07
2022-11-17T19:44:19.116Z,96.68
2022-11-17T19:47:23.126Z,52.88
2022-11-17T19:50:26.257Z,27.42
2022-11-17T19:53:30.056Z,22.83
2022-11-17T19:56:33.734Z,24.47
2022-11-17T19:59:37.680Z,27.30
2022-11-17T20:02:41.062Z,71.55
2022-11-17T20:05:45.734Z,66.23
2022-11-17T20:08:49.583Z,65.85
2022-11-17T20:11:52.857Z,55.67
2022-11-17T20:14:56.514Z,64.93
2022-11-17T20:18:00.423Z,56.70
2022-11-17T20:21:07.552Z,65.40
2022-11-17T20:24:11.759Z,56.60
2022-11-17T20:27:14.722Z,58.60
2022-11-17T20:30:18.217Z,55.15
2022-11-17T20:33:22.248Z,64.40
2022-11-17T20:36:25.217Z,85.82
2022-11-17T20:39:29.053Z,97.70
2022-11-17T20:42:32.663Z,96.50
2022-11-17T20:45:36.562Z,94.07
2022-11-17T20:48:39.497Z,81.65
2022-11-17T20:51:43.516Z,84.45
2022-11-17T20:54:46.997Z,79.20
2022-11-17T20:57:50.941Z,78.10
2022-11-17T21:00:55.075Z,80.63
2022-11-17T21:03:59.080Z,80.10
2022-11-17T21:07:02.592Z,68.68
2022-11-17T21:10:06.774Z,49.47
2022-11-17T21:13:10.406Z,36.33
2022-11-17T21:16:15.691Z,40.90
2022-11-17T21:19:19.772Z,51.00
2022-11-17T21:22:22.939Z,51.20
2022-11-17T21:25:26.751Z,50.08
2022-11-17T21:28:30.743Z,48.22
2022-11-17T21:31:33.756Z,56.53
2022-11-17T21:34:37.329Z,51.60
2022-11-17T21:37:40.834Z,58.47
2022-11-17T21:40:44.396Z,46.13
2022-11-17T21:43:49.604Z,43.05
2022-11-17T21:46:53.222Z,40.63
2022-11-17T21:49:57.161Z,44.53
2022-11-17T21:53:00.824Z,47.10
2022-11-17T21:56:06.482Z,41.47
2022-11-17T21:59:14.213Z,41.42
2022-11-17T22:02:18.555Z,46.20
2022-11-17T22:05:23.003Z,51.87
2022-11-17T22:08:26.563Z,42.60
2022-11-17T22:11:38.157Z,40.50
2022-11-17T22:14:42.211Z,40.77
2022-11-17T22:17:45.787Z,64.90
2022-11-17T22:20:55.432Z,55.50
2022-11-17T22:23:59.377Z,61.78
2022-11-17T22:27:02.610Z,50.67
2022-11-17T22:30:06.840Z,55.38
2022-11-17T22:33:10.670Z,61.35
2022-11-17T22:36:16.037Z,54.63
2022-11-17T22:39:19.355Z,47.08
2022-11-17T22:42:23.506Z,49.78
2022-11-17T22:45:27.735Z,48.20
2022-11-17T22:48:32.217Z,51.85
2022-11-17T22:51:53.706Z,47.75
2022-11-17T22:54:56.569Z,55.42
2022-11-17T22:58:01.095Z,55.83
2022-11-17T23:01:08.605Z,91.95
2022-11-17T23:04:13.266Z,62.60
2022-11-17T23:07:16.825Z,57.90
2022-11-17T23:10:20.955Z,65.97
2022-11-17T23:13:24.489Z,74.18
2022-11-17T23:16:28.277Z,62.80
2022-11-17T23:19:31.229Z,65.00
2022-11-17T23:22:35.586Z,63.25
2022-11-17T23:25:39.048Z,65.93
2022-11-17T23:28:44.312Z,58.77
2022-11-17T23:31:47.659Z,51.85
2022-11-17T23:34:51.433Z,47.10
2022-11-17T23:37:55.023Z,45.20
2022-11-17T23:41:07.122Z,44.20
2022-11-17T23:44:10.993Z,44.63
2022-11-17T23:47:14.792Z,69.72
2022-11-17T23:50:18.105Z,62.55
2022-11-17T23:53:21.687Z,64.20
2022-11-17T23:56:25.368Z,46.03
2022-11-17T23:59:28.164Z,46.22
